Time;durP1;ratioP1;P1;durP2;ratioP2;P2;SDS_P1;SDS_P2;PMS_P1;PMS_P2;Temp;Humidity;BMP_temperature;BMP_pressure;BME280_temperature;BME280_humidity;BME280_pressure;Samples;Min_cycle;Max_cycle;Signal;HPM_P1;HPM_P2
2022/10/24 00:00:17;;;;;;;0.10;0.10;;;;;;;13.66;100.00;100562.50;10468383;22;20052;-78
2022/10/24 00:05:17;;;;;;;0.10;0.10;;;;;;;13.66;100.00;100564.38;10413918;28;20021;-77
2022/10/24 00:10:18;;;;;;;0.10;0.10;;;;;;;13.61;100.00;100572.94;10406241;28;20112;-78
2022/10/24 00:15:19;;;;;;;0.00;0.00;;;;;;;13.62;100.00;100565.75;10427311;28;20029;-78
2022/10/24 00:20:19;;;;;;;0.10;0.10;;;;;;;13.64;100.00;100555.69;10456035;28;20016;-78
2022/10/24 00:25:19;;;;;;;0.10;0.10;;;;;;;13.66;100.00;100564.38;10438771;28;20017;-78
2022/10/24 00:30:20;;;;;;;0.10;0.10;;;;;;;13.65;100.00;100560.03;10440106;28;20021;-77
2022/10/24 00:35:20;;;;;;;0.10;0.10;;;;;;;13.62;100.00;100553.22;10422186;28;20442;-78
2022/10/24 00:40:21;;;;;;;0.10;0.10;;;;;;;13.64;100.00;100555.69;10446540;28;20255;-77
2022/10/24 00:45:45;;;;;;;0.10;0.10;;;;;;;13.65;100.00;100550.16;10422450;28;20014;-77
2022/10/24 00:50:48;;;;;;;0.10;0.10;;;;;;;13.61;100.00;100550.69;10427982;28;20439;-77
2022/10/24 00:55:53;;;;;;;0.10;0.10;;;;;;;13.55;100.00;100539.72;10418351;28;20045;-78
2022/10/24 01:00:55;;;;;;;0.03;0.03;;;;;;;13.54;100.00;100543.41;10426000;28;20020;-77
2022/10/24 01:06:22;;;;;;;0.10;0.10;;;;;;;13.49;100.00;100537.78;10452481;28;20029;-77
2022/10/24 01:11:31;;;;;;;0.10;0.10;;;;;;;13.41;100.00;100543.25;10433720;28;20063;-78
2022/10/24 01:16:57;;;;;;;0.10;0.10;;;;;;;13.38;100.00;100548.97;10453392;28;20480;-78
2022/10/24 01:22:02;;;;;;;0.00;0.00;;;;;;;13.28;100.00;100548.41;10453008;28;20013;-77
2022/10/24 01:27:13;;;;;;;0.10;0.10;;;;;;;13.22;100.00;100539.22;10444664;28;20028;-78
2022/10/24 01:32:32;;;;;;;0.10;0.10;;;;;;;13.14;100.00;100544.66;10440327;28;20468;-78
2022/10/24 01:37:41;;;;;;;0.10;0.10;;;;;;;13.07;100.00;100541.06;10431168;28;20115;-78
2022/10/24 01:42:43;;;;;;;0.05;0.05;;;;;;;13.01;100.00;100537.28;10444160;28;20033;-78
2022/10/24 01:47:49;;;;;;;0.10;0.10;;;;;;;12.98;100.00;100526.94;10442018;28;20052;-78
2022/10/24 01:52:50;;;;;;;0.00;0.00;;;;;;;13.00;100.00;100519.59;10419065;28;20025;-78
2022/10/24 01:57:51;;;;;;;0.10;0.10;;;;;;;13.01;100.00;100509.72;10411850;28;20021;-77
2022/10/24 02:02:57;;;;;;;0.10;0.10;;;;;;;13.00;100.00;100508.91;10434049;28;20017;-78
2022/10/24 02:08:06;;;;;;;0.10;0.10;;;;;;;12.98;100.00;100500.22;10409370;28;20021;-78
2022/10/24 02:13:14;;;;;;;0.10;0.10;;;;;;;12.93;100.00;100502.59;10426134;28;20026;-78
2022/10/24 02:18:15;;;;;;;0.10;0.10;;;;;;;12.89;100.00;100495.97;10435235;28;20033;-78
2022/10/24 02:23:43;;;;;;;0.10;0.10;;;;;;;12.82;100.00;100484.31;10421413;28;20017;-77
2022/10/24 02:28:48;;;;;;;0.10;0.10;;;;;;;12.83;100.00;100469.97;10440363;28;20036;-78
2022/10/24 02:33:50;;;;;;;0.10;0.10;;;;;;;12.77;100.00;100476.88;10422948;28;20485;-78
2022/10/24 02:38:52;;;;;;;0.10;0.10;;;;;;;12.68;100.00;100483.28;10416905;28;20022;-78
2022/10/24 02:43:55;;;;;;;0.10;0.10;;;;;;;12.59;100.00;100469.16;10408583;28;20020;-78
2022/10/24 02:48:58;;;;;;;0.10;0.10;;;;;;;12.56;100.00;100469.53;10441012;28;20116;-78
2022/10/24 02:54:01;;;;;;;0.10;0.10;;;;;;;12.50;100.00;100459.56;10430239;28;20479;-78
2022/10/24 02:59:01;;;;;;;0.10;0.10;;;;;;;12.50;100.00;100464.91;10425640;28;20027;-78
2022/10/24 03:04:01;;;;;;;0.08;0.08;;;;;;;12.45;100.00;100449.44;10435372;28;20020;-78
2022/10/24 03:09:02;;;;;;;0.10;0.10;;;;;;;12.43;100.00;100455.97;10449446;28;20041;-78
2022/10/24 03:14:03;;;;;;;0.10;0.10;;;;;;;12.41;100.00;100449.97;10448737;28;20029;-78
2022/10/24 03:19:03;;;;;;;0.10;0.10;;;;;;;12.38;100.00;100440.47;10435989;28;20030;-77
2022/10/24 03:24:03;;;;;;;0.10;0.10;;;;;;;12.35;100.00;100437.34;10408701;28;20025;-76
2022/10/24 03:29:04;;;;;;;0.10;0.10;;;;;;;12.35;100.00;100437.34;10406028;28;20084;-77
2022/10/24 03:34:04;;;;;;;0.10;0.10;;;;;;;12.30;100.00;100437.03;10442318;28;20056;-76
2022/10/24 03:39:04;;;;;;;0.00;0.00;;;;;;;12.27;100.00;100429.41;10419194;28;20393;-77
2022/10/24 03:44:05;;;;;;;0.10;0.10;;;;;;;12.25;100.00;100434.94;10407692;28;20480;-77
2022/10/24 03:49:05;;;;;;;0.10;0.10;;;;;;;12.26;100.00;100438.44;10415860;28;20384;-76
2022/10/24 03:54:05;;;;;;;0.10;0.10;;;;;;;12.29;100.00;100432.72;10428352;28;20025;-76
2022/10/24 03:59:05;;;;;;;0.10;0.10;;;;;;;12.30;100.00;100443.22;10446990;28;20037;-76
2022/10/24 04:04:06;;;;;;;0.20;0.20;;;;;;;12.27;100.00;100424.88;10405477;28;20032;-76
2022/10/24 04:09:06;;;;;;;0.10;0.10;;;;;;;12.20;100.00;100411.44;10429969;28;20134;-76
2022/10/24 04:14:08;;;;;;;0.10;0.10;;;;;;;12.17;100.00;100410.97;10413207;28;20045;-77
2022/10/24 04:19:09;;;;;;;0.10;0.10;;;;;;;12.18;100.00;100407.28;10406946;28;20179;-76
2022/10/24 04:24:10;;;;;;;0.10;0.10;;;;;;;12.23;100.00;100407.56;10438791;28;20040;-77
2022/10/24 04:29:11;;;;;;;0.10;0.10;;;;;;;12.31;100.00;100406.69;10416441;28;20037;-76
2022/10/24 04:34:11;;;;;;;0.10;0.10;;;;;;;12.33;100.00;100416.16;10428632;28;20380;-77
2022/10/24 04:39:11;;;;;;;0.10;0.10;;;;;;;12.35;100.00;100426.66;10450143;28;20384;-77
2022/10/24 04:44:12;;;;;;;0.10;0.10;;;;;;;12.36;100.00;100422.97;10453678;28;20468;-76
2022/10/24 04:49:12;;;;;;;0.10;0.10;;;;;;;12.36;100.00;100421.16;10424180;28;20045;-77
2022/10/24 04:54:12;;;;;;;0.10;0.10;;;;;;;12.33;100.00;100415.31;10437715;28;20487;-76
2022/10/24 04:59:13;;;;;;;0.00;0.00;;;;;;;12.27;100.00;100414.19;10447739;28;20151;-77
2022/10/24 05:04:13;;;;;;;0.10;0.10;;;;;;;12.23;100.00;100412.91;10413742;28;20071;-76
2022/10/24 05:09:14;;;;;;;0.05;0.05;;;;;;;12.21;100.00;100414.91;10432560;28;20025;-76
2022/10/24 05:14:14;;;;;;;0.10;0.10;;;;;;;12.18;100.00;100421.44;10449577;28;20325;-76
2022/10/24 05:19:16;;;;;;;0.10;0.10;;;;;;;12.15;100.00;100416.47;10423292;28;20029;-77
2022/10/24 05:24:16;;;;;;;0.10;0.10;;;;;;;12.14;100.00;100417.47;10452174;28;20116;-77
2022/10/24 05:29:16;;;;;;;0.10;0.10;;;;;;;12.13;100.00;100415.84;10448345;28;20056;-77
2022/10/24 05:34:16;;;;;;;0.03;0.03;;;;;;;12.08;100.00;100418.22;10446980;28;20052;-77
2022/10/24 05:39:17;;;;;;;0.08;0.08;;;;;;;12.07;100.00;100418.38;10452577;28;20022;-77
2022/10/24 05:44:18;;;;;;;0.00;0.00;;;;;;;12.08;100.00;100422.72;10426899;28;20017;-76
2022/10/24 05:49:19;;;;;;;0.00;0.00;;;;;;;12.07;100.00;100431.72;10435264;28;20045;-76
2022/10/24 05:54:19;;;;;;;0.10;0.10;;;;;;;12.02;100.00;100426.09;10412240;28;20061;-77
2022/10/24 06:04:27;;;;;;;0.10;0.10;;;;;;;12.14;100.00;100417.47;10450689;28;20777;-77
2022/10/24 06:09:27;;;;;;;0.10;0.10;;;;;;;12.18;100.00;100426.78;10452657;28;20020;-76
2022/10/24 06:14:27;;;;;;;0.10;0.10;;;;;;;12.29;100.00;100422.88;10451624;28;20053;-77
2022/10/24 06:19:28;;;;;;;0.00;0.00;;;;;;;12.37;100.00;100411.28;10439149;28;20027;-77
2022/10/24 06:24:28;;;;;;;0.10;0.10;;;;;;;12.43;100.00;100422.06;10432564;28;20032;-74
2022/10/24 06:29:29;;;;;;;0.00;0.00;;;;;;;12.46;100.00;100412.88;10401413;28;20127;-75
2022/10/24 06:34:29;;;;;;;0.10;0.10;;;;;;;12.43;100.00;100408.72;10417534;28;20195;-77
2022/10/24 06:39:29;;;;;;;0.10;0.10;;;;;;;12.45;100.00;100412.03;10452928;28;20258;-77
2022/10/24 06:44:30;;;;;;;0.10;0.10;;;;;;;12.48;100.00;100416.19;10451510;28;20523;-76
2022/10/24 06:49:30;;;;;;;0.10;0.10;;;;;;;12.53;100.00;100424.47;10453741;28;20438;-77
2022/10/24 06:54:32;;;;;;;0.10;0.10;;;;;;;12.61;100.00;100427.06;10452504;28;20028;-76
2022/10/24 06:59:32;;;;;;;0.10;0.10;;;;;;;12.65;100.00;100431.06;10452325;28;20075;-77
2022/10/24 07:04:33;;;;;;;0.10;0.10;;;;;;;12.77;100.00;100439.47;10452144;28;20070;-77
2022/10/24 07:09:33;;;;;;;0.10;0.10;;;;;;;12.93;100.00;100446.47;10454352;28;20023;-77
2022/10/24 07:14:33;;;;;;;0.10;0.10;;;;;;;13.11;100.00;100448.75;10450390;28;20021;-77
2022/10/24 07:19:34;;;;;;;0.00;0.00;;;;;;;13.30;100.00;100444.75;10452489;28;20021;-76
2022/10/24 07:24:34;;;;;;;0.10;0.10;;;;;;;13.63;100.00;100450.47;10451703;28;20033;-76
2022/10/24 07:29:38;;;;;;;0.00;0.00;;;;;;;13.79;100.00;100457.47;10463284;28;20463;-77
2022/10/24 07:34:39;;;;;;;0.10;0.10;;;;;;;14.58;100.00;100473.50;10454619;28;20475;-77
2022/10/24 07:39:39;;;;;;;0.10;0.10;;;;;;;15.54;100.00;100464.78;10467379;28;20025;-78
2022/10/24 07:44:39;;;;;;;0.00;0.00;;;;;;;15.99;100.00;100481.28;10465648;28;20025;-78
2022/10/24 07:49:40;;;;;;;0.00;0.00;;;;;;;16.48;100.00;100477.41;10466612;28;20498;-78
2022/10/24 07:54:40;;;;;;;0.07;0.07;;;;;;;17.17;100.00;100473.47;10467382;28;20064;-77
2022/10/24 07:59:40;;;;;;;0.00;0.00;;;;;;;17.58;100.00;100481.19;10466612;28;20248;-77
2022/10/24 08:04:41;;;;;;;0.10;0.10;;;;;;;17.75;100.00;100475.31;10467041;28;20025;-77
2022/10/24 08:09:44;;;;;;;0.10;0.10;;;;;;;17.87;100.00;100474.44;10468959;28;20016;-78
2022/10/24 08:14:45;;;;;;;0.10;0.10;;;;;;;17.13;100.00;100474.91;10458889;28;20368;-77
2022/10/24 08:19:45;;;;;;;0.00;0.00;;;;;;;16.71;100.00;100471.63;10455132;28;20049;-78
2022/10/24 08:24:45;;;;;;;0.05;0.05;;;;;;;16.53;100.00;100466.88;10455000;28;20092;-77
2022/10/24 08:29:46;;;;;;;0.10;0.10;;;;;;;16.41;100.00;100460.47;10455262;28;20031;-77
2022/10/24 08:34:46;;;;;;;0.00;0.00;;;;;;;16.25;100.00;100446.38;10454084;28;20027;-76
2022/10/24 08:39:47;;;;;;;0.10;0.10;;;;;;;16.23;100.00;100448.47;10459306;28;20484;-76
2022/10/24 08:44:47;;;;;;;0.00;0.00;;;;;;;16.60;100.00;100443.50;10457792;28;20154;-77
2022/10/24 08:49:54;;;;;;;0.00;0.00;;;;;;;16.75;100.00;100454.88;10458129;28;20028;-77
2022/10/24 08:54:57;;;;;;;0.10;0.10;;;;;;;17.43;100.00;100426.78;10457420;28;20524;-77
2022/10/24 09:00:03;;;;;;;0.10;0.10;;;;;;;18.00;100.00;100438.50;10458126;28;20365;-74
2022/10/24 09:05:26;;;;;;;0.10;0.10;;;;;;;18.18;100.00;100447.69;10457036;28;20033;-77
2022/10/24 09:10:48;;;;;;;0.10;0.10;;;;;;;18.30;100.00;100443.28;10457710;28;20065;-77
2022/10/24 09:15:49;;;;;;;0.10;0.10;;;;;;;18.13;100.00;100453.75;10452250;28;20028;-76
2022/10/24 09:20:51;;;;;;;0.00;0.00;;;;;;;17.99;100.00;100452.19;10455047;28;20028;-77
2022/10/24 09:25:54;;;;;;;0.10;0.10;;;;;;;18.00;100.00;100446.56;10449705;28;20054;-76
2022/10/24 09:30:55;;;;;;;0.10;0.10;;;;;;;18.07;100.00;100454.63;10453827;28;20070;-76
2022/10/24 09:35:58;;;;;;;0.00;0.00;;;;;;;18.09;100.00;100450.69;10452357;28;20028;-77
2022/10/24 09:41:14;;;;;;;0.08;0.08;;;;;;;18.30;100.00;100449.50;10451753;28;20021;-76
2022/10/24 09:46:28;;;;;;;0.00;0.00;;;;;;;18.29;100.00;100442.44;10452039;28;20056;-74
2022/10/24 09:51:35;;;;;;;0.00;0.00;;;;;;;18.21;100.00;100448.13;10449680;28;20087;-77
2022/10/24 09:56:39;;;;;;;0.00;0.00;;;;;;;18.18;100.00;100448.56;10451573;28;20025;-75
2022/10/24 10:01:40;;;;;;;;;;;;;;;18.15;100.00;100440.91;10449762;28;20028;-77
2022/10/24 10:06:47;;;;;;;0.00;0.00;;;;;;;18.02;100.00;100441.81;10451014;28;19909;-77
2022/10/24 10:11:55;;;;;;;0.10;0.10;;;;;;;18.04;100.00;100450.50;10449898;28;20033;-76
2022/10/24 10:17:05;;;;;;;0.00;0.00;;;;;;;17.99;100.00;100446.81;10450540;28;20025;-77
2022/10/24 10:22:23;;;;;;;0.00;0.00;;;;;;;17.99;100.00;100449.50;10435122;28;20556;-77
2022/10/24 10:27:36;;;;;;;0.00;0.00;;;;;;;18.05;100.00;100430.59;10451114;28;20495;-77
2022/10/24 10:32:43;;;;;;;0.00;0.00;;;;;;;17.98;100.00;100446.00;10435633;28;20380;-77
2022/10/24 10:37:58;;;;;;;0.10;0.10;;;;;;;17.69;100.00;100447.38;10450177;28;20025;-77
2022/10/24 10:43:17;;;;;;;0.00;0.00;;;;;;;17.71;100.00;100447.97;10448289;28;20044;-77
2022/10/24 10:48:52;;;;;;;0.08;0.08;;;;;;;17.81;100.00;100439.47;10449912;28;20365;-77
2022/10/24 10:54:11;;;;;;;0.00;0.00;;;;;;;17.77;100.00;100455.22;10448796;28;20021;-77
2022/10/24 10:59:40;;;;;;;0.00;0.00;;;;;;;17.69;100.00;100441.97;10443574;28;20028;-77
2022/10/24 11:05:22;;;;;;;0.10;0.10;;;;;;;17.57;100.00;100459.84;10448061;28;20017;-77
2022/10/24 11:10:28;;;;;;;0.10;0.10;;;;;;;17.50;100.00;100457.19;10448139;28;20025;-77
2022/10/24 11:15:34;;;;;;;0.10;0.10;;;;;;;17.42;100.00;100452.03;10447987;28;20035;-77
2022/10/24 11:20:42;;;;;;;0.00;0.00;;;;;;;17.64;100.00;100455.25;10448168;28;20036;-76
2022/10/24 11:25:51;;;;;;;0.00;0.00;;;;;;;17.85;100.00;100456.84;10448099;28;20013;-76
2022/10/24 11:30:59;;;;;;;0.10;0.10;;;;;;;17.82;100.00;100439.22;10448201;28;20028;-77
2022/10/24 11:36:06;;;;;;;0.05;0.05;;;;;;;17.72;100.00;100441.56;10447331;28;20071;-76
2022/10/24 11:41:31;;;;;;;0.00;0.00;;;;;;;17.55;100.00;100451.16;10447708;28;20064;-76
2022/10/24 11:46:39;;;;;;;0.05;0.05;;;;;;;17.42;100.00;100449.34;10448325;28;20024;-74
2022/10/24 11:51:48;;;;;;;0.00;0.00;;;;;;;17.49;100.00;100457.41;10446943;28;20026;-76
2022/10/24 11:56:53;;;;;;;0.10;0.10;;;;;;;17.55;100.00;100459.25;10448901;28;20382;-76
2022/10/24 12:01:54;;;;;;;0.00;0.00;;;;;;;17.54;100.00;100458.41;10457817;22;20076;-76
2022/10/24 12:07:32;;;;;;;0.00;0.00;;;;;;;17.62;100.00;100451.94;10455904;28;20048;-76
2022/10/24 12:12:35;;;;;;;0.00;0.00;;;;;;;17.73;100.00;100461.22;10416714;28;20047;-76
2022/10/24 12:17:54;;;;;;;0.00;0.00;;;;;;;17.68;100.00;100466.44;10485263;28;20024;-76
2022/10/24 12:22:55;;;;;;;0.10;0.10;;;;;;;17.55;100.00;100462.75;10465212;28;20040;-76
2022/10/24 12:27:58;;;;;;;0.00;0.00;;;;;;;17.46;100.00;100453.28;10454864;28;20495;-76
2022/10/24 12:33:24;;;;;;;0.10;0.10;;;;;;;17.25;100.00;100448.16;10468773;28;20194;-75
2022/10/24 12:38:27;;;;;;;0.10;0.10;;;;;;;16.74;100.00;100477.41;10496338;28;20087;-76
2022/10/24 12:43:46;;;;;;;0.00;0.00;;;;;;;16.00;100.00;100473.03;10464523;28;20472;-76
2022/10/24 12:48:55;;;;;;;0.10;0.10;;;;;;;15.60;100.00;100474.72;10452512;28;20025;-76
2022/10/24 12:54:11;;;;;;;0.10;0.10;;;;;;;15.51;100.00;100484.00;10483504;28;20062;-76
2022/10/24 12:59:27;;;;;;;0.00;0.00;;;;;;;15.78;100.00;100471.50;10456385;28;20055;-76
2022/10/24 13:04:52;;;;;;;0.10;0.10;;;;;;;16.00;100.00;100466.84;10464144;28;20024;-76
2022/10/24 13:10:06;;;;;;;0.10;0.10;;;;;;;16.00;100.00;100469.53;10452614;28;20104;-76
2022/10/24 13:15:15;;;;;;;0.00;0.00;;;;;;;15.90;100.00;100477.13;10479349;28;20047;-76
2022/10/24 13:20:23;;;;;;;0.00;0.00;;;;;;;15.76;100.00;100478.94;10469303;28;20052;-76
2022/10/24 13:25:38;;;;;;;0.10;0.10;;;;;;;15.61;100.00;100497.84;10455274;28;20048;-77
2022/10/24 13:30:38;;;;;;;0.10;0.10;;;;;;;15.46;100.00;100489.94;10453170;28;20025;-77
2022/10/24 13:35:38;;;;;;;0.00;0.00;;;;;;;15.27;100.00;100509.44;10451449;28;20107;-77
2022/10/24 13:40:43;;;;;;;0.10;0.10;;;;;;;15.12;100.00;100539.88;10471556;28;20114;-76
2022/10/24 13:45:57;;;;;;;0.00;0.00;;;;;;;14.98;100.00;100524.75;10458270;28;20471;-76
2022/10/24 13:50:57;;;;;;;;;;;;;;;14.92;100.00;100510.28;10460012;28;20048;-77
2022/10/24 13:56:12;;;;;;;0.00;0.00;;;;;;;14.87;100.00;100518.06;10487532;28;20251;-77
2022/10/24 14:01:22;;;;;;;0.10;0.10;;;;;;;14.78;100.00;100516.56;10482165;28;20043;-76
2022/10/24 14:06:28;;;;;;;0.00;0.00;;;;;;;14.88;100.00;100525.06;10492483;28;20016;-76
2022/10/24 14:11:30;;;;;;;0.05;0.05;;;;;;;15.01;100.00;100528.88;10474635;28;20052;-76
2022/10/24 14:16:32;;;;;;;0.10;0.10;;;;;;;15.01;100.00;100527.03;10456686;28;20029;-77
2022/10/24 14:21:42;;;;;;;0.00;0.00;;;;;;;14.97;100.00;100524.94;10466029;28;20111;-76
2022/10/24 14:26:44;;;;;;;0.00;0.00;;;;;;;14.98;100.00;100516.72;10487133;28;20039;-77
2022/10/24 14:31:44;;;;;;;0.10;0.10;;;;;;;15.19;100.00;100505.09;10462499;28;20020;-76
2022/10/24 14:36:45;;;;;;;0.10;0.10;;;;;;;15.38;100.00;100520.44;10444268;28;20069;-77
2022/10/24 14:41:45;;;;;;;0.00;0.00;;;;;;;15.45;100.00;100511.63;10448765;28;20255;-76
2022/10/24 14:47:04;;;;;;;0.10;0.10;;;;;;;15.47;100.00;100517.59;10449876;28;20340;-76
2022/10/24 14:52:35;;;;;;;0.10;0.10;;;;;;;15.38;100.00;100515.06;10446485;28;20040;-76
2022/10/24 14:57:35;;;;;;;0.00;0.00;;;;;;;15.30;100.00;100517.94;10449846;28;20016;-76
2022/10/24 15:02:39;;;;;;;0.10;0.10;;;;;;;15.16;100.00;100533.13;10465643;28;20021;-76
2022/10/24 15:07:40;;;;;;;;;;;;;;;15.12;100.00;100525.66;10492720;28;20367;-76
2022/10/24 15:12:50;;;;;;;0.00;0.00;;;;;;;15.06;100.00;100527.25;10490185;28;19921;-76
2022/10/24 15:17:52;;;;;;;0.00;0.00;;;;;;;14.99;100.00;100521.03;10491720;28;20064;-76
2022/10/24 15:22:59;;;;;;;0.10;0.10;;;;;;;14.99;100.00;100526.41;10489389;28;20013;-76
2022/10/24 15:28:01;;;;;;;0.10;0.10;;;;;;;14.97;100.00;100532.97;10491237;28;20059;-76
2022/10/24 15:33:04;;;;;;;0.00;0.00;;;;;;;14.88;100.00;100540.34;10478696;28;20021;-76
2022/10/24 15:38:16;;;;;;;0.00;0.00;;;;;;;14.73;100.00;100528.88;10491299;28;20083;-76
2022/10/24 15:43:18;;;;;;;0.10;0.10;;;;;;;14.65;100.00;100535.19;10450871;28;20021;-77
2022/10/24 15:48:18;;;;;;;0.10;0.10;;;;;;;14.56;100.00;100541.72;10457215;28;20041;-76
2022/10/24 15:53:20;;;;;;;0.10;0.10;;;;;;;14.49;100.00;100547.00;10466218;28;20037;-76
2022/10/24 15:58:21;;;;;;;0.00;0.00;;;;;;;14.41;100.00;100550.63;10495591;28;20036;-77
2022/10/24 16:03:22;;;;;;;0.10;0.10;;;;;;;14.34;100.00;100555.09;10486971;28;20394;-76
2022/10/24 16:08:23;;;;;;;0.10;0.10;;;;;;;14.26;100.00;100566.75;10496644;28;20024;-76
2022/10/24 16:13:23;;;;;;;0.10;0.10;;;;;;;14.23;100.00;100568.97;10459553;28;20028;-75
2022/10/24 16:18:23;;;;;;;0.03;0.03;;;;;;;14.28;100.00;100569.22;10456244;28;20032;-76
2022/10/24 16:23:25;;;;;;;0.10;0.10;;;;;;;14.35;100.00;100586.22;10456418;28;20092;-75
2022/10/24 16:28:25;;;;;;;0.10;0.10;;;;;;;14.34;100.00;100576.53;10454698;28;20191;-77
2022/10/24 16:33:25;;;;;;;0.10;0.10;;;;;;;14.26;100.00;100579.31;10454136;28;20070;-76
2022/10/24 16:38:26;;;;;;;0.10;0.10;;;;;;;14.11;100.00;100600.78;10455683;28;20297;-76
2022/10/24 16:43:26;;;;;;;0.10;0.10;;;;;;;13.99;100.00;100610.28;10461390;28;20380;-76
2022/10/24 16:48:28;;;;;;;0.10;0.10;;;;;;;13.85;100.00;100616.53;10493333;28;20020;-76
2022/10/24 16:53:28;;;;;;;0.00;0.00;;;;;;;13.71;100.00;100613.66;10495477;28;20383;-76
2022/10/24 16:58:29;;;;;;;0.10;0.10;;;;;;;13.59;100.00;100617.81;10494738;28;20031;-77
2022/10/24 17:03:30;;;;;;;0.10;0.10;;;;;;;13.50;100.00;100618.91;10484131;28;20035;-76
2022/10/24 17:08:31;;;;;;;0.10;0.10;;;;;;;13.44;100.00;100633.84;10495452;28;20067;-76
2022/10/24 17:13:31;;;;;;;0.10;0.10;;;;;;;13.38;100.00;100639.94;10448441;28;20051;-76
2022/10/24 17:18:31;;;;;;;0.10;0.10;;;;;;;13.34;100.00;100647.47;10462303;28;20050;-76
2022/10/24 17:23:32;;;;;;;0.10;0.10;;;;;;;13.31;100.00;100660.38;10453165;28;20383;-76
2022/10/24 17:28:33;;;;;;;0.00;0.00;;;;;;;13.30;100.00;100662.22;10452316;28;20025;-76
2022/10/24 17:33:33;;;;;;;0.00;0.00;;;;;;;13.36;100.00;100658.84;10451809;28;20480;-76
2022/10/24 17:38:56;;;;;;;0.10;0.10;;;;;;;13.36;100.00;100658.00;10483327;28;20016;-76
2022/10/24 17:43:56;;;;;;;0.10;0.10;;;;;;;13.32;100.00;100667.38;10451897;28;20024;-75
2022/10/24 17:48:57;;;;;;;0.10;0.10;;;;;;;13.24;100.00;100660.25;10452687;28;20384;-76
2022/10/24 17:53:57;;;;;;;0.10;0.10;;;;;;;13.14;100.00;100665.00;10459595;28;20029;-76
2022/10/24 17:58:57;;;;;;;0.10;0.10;;;;;;;13.07;100.00;100667.56;10451095;28;20091;-76
2022/10/24 18:03:58;;;;;;;0.10;0.10;;;;;;;12.97;100.00;100663.47;10512576;22;20131;-88
2022/10/24 18:08:58;;;;;;;0.10;0.10;;;;;;;12.86;100.00;100672.75;10523739;28;20040;-87
2022/10/24 18:14:00;;;;;;;0.10;0.10;;;;;;;12.68;100.00;100665.84;10522813;28;20024;-91
2022/10/24 18:19:08;;;;;;;0.10;0.10;;;;;;;12.53;100.00;100653.41;10542938;28;20309;-92
2022/10/24 18:24:22;;;;;;;0.10;0.10;;;;;;;12.48;100.00;100669.97;10540868;28;20012;-91
2022/10/24 18:29:22;;;;;;;0.10;0.10;;;;;;;12.46;100.00;100677.34;10537981;28;20028;-92
2022/10/24 18:34:40;;;;;;;0.10;0.10;;;;;;;12.41;100.00;100661.00;10540751;28;20025;-92
2022/10/24 18:39:53;;;;;;;0.10;0.10;;;;;;;12.48;100.00;100669.97;10529903;28;20374;-91
2022/10/24 18:45:03;;;;;;;0.10;0.10;;;;;;;12.57;100.00;100684.94;10549448;28;20033;-91
2022/10/24 18:50:04;;;;;;;0.10;0.10;;;;;;;12.65;100.00;100702.75;10504462;28;20047;-91
2022/10/24 18:55:25;;;;;;;0.10;0.10;;;;;;;12.56;100.00;100699.31;10530548;28;20097;-92
2022/10/24 19:00:29;;;;;;;0.10;0.10;;;;;;;12.58;100.00;100717.84;10531221;28;20018;-87
2022/10/24 19:05:55;;;;;;;0.10;0.10;;;;;;;12.52;100.00;100714.03;10518764;28;20392;-92
2022/10/24 19:10:55;;;;;;;0.10;0.10;;;;;;;12.44;100.00;100701.53;10534576;28;20024;-91
2022/10/24 19:16:02;;;;;;;0.05;0.05;;;;;;;12.46;100.00;100710.22;10518614;28;20020;-91
2022/10/24 19:21:04;;;;;;;0.10;0.10;;;;;;;12.52;100.00;100715.88;10523310;28;20032;-91
2022/10/24 19:26:05;;;;;;;0.10;0.10;;;;;;;12.47;100.00;100721.72;10524038;28;20019;-91
2022/10/24 19:31:05;;;;;;;0.10;0.10;;;;;;;12.45;100.00;100716.56;10519620;28;20404;-91
2022/10/24 19:36:07;;;;;;;0.10;0.10;;;;;;;12.40;100.00;100731.47;10524803;28;20032;-92
2022/10/24 19:41:09;;;;;;;0.10;0.10;;;;;;;12.37;100.00;100735.31;10519029;28;20111;-91
2022/10/24 19:46:10;;;;;;;0.10;0.10;;;;;;;12.34;100.00;100738.31;10521011;28;20027;-90
2022/10/24 19:51:11;;;;;;;0.10;0.10;;;;;;;12.25;100.00;100734.03;10522543;28;20020;-90
2022/10/24 19:56:27;;;;;;;0.00;0.00;;;;;;;12.12;100.00;100717.69;10536142;28;20070;-91
2022/10/24 20:01:28;;;;;;;0.00;0.00;;;;;;;12.15;100.00;100739.53;10522525;28;20404;-91
2022/10/24 20:06:32;;;;;;;0.10;0.10;;;;;;;12.15;100.00;100742.22;10521591;28;20047;-91
2022/10/24 20:11:40;;;;;;;0.10;0.10;;;;;;;12.13;100.00;100725.53;10514906;28;20393;-91
2022/10/24 20:16:40;;;;;;;0.10;0.10;;;;;;;12.14;100.00;100731.72;10526959;28;20025;-91
2022/10/24 20:21:53;;;;;;;0.10;0.10;;;;;;;12.09;100.00;100736.72;10526687;28;20103;-92
2022/10/24 20:26:59;;;;;;;0.10;0.10;;;;;;;12.05;100.00;100744.25;10526978;28;20034;-91
2022/10/24 20:32:28;;;;;;;0.10;0.10;;;;;;;11.98;100.00;100744.13;10536646;28;20455;-93
2022/10/24 20:37:34;;;;;;;0.10;0.10;;;;;;;11.95;100.00;100756.94;10522945;28;20484;-93
2022/10/24 20:42:54;;;;;;;;;;;;;;;;;;;;;
2022/10/24 20:47:57;;;;;;;0.10;0.10;;;;;;;11.99;100.00;100763.63;10513472;28;20024;-93
2022/10/24 20:52:58;;;;;;;0.10;0.10;;;;;;;11.99;100.00;100760.97;10536927;28;20492;-92
2022/10/24 20:57:58;;;;;;;0.10;0.10;;;;;;;12.04;100.00;100779.13;10535959;28;20028;-92
2022/10/24 21:02:59;;;;;;;0.10;0.10;;;;;;;12.05;100.00;100780.81;10553876;28;20096;-92
2022/10/24 21:07:59;;;;;;;0.10;0.10;;;;;;;12.12;100.00;100803.97;10531870;28;20038;-92
2022/10/24 21:12:59;;;;;;;0.10;0.10;;;;;;;11.98;100.00;100780.63;10519663;28;20809;-92
2022/10/24 21:18:00;;;;;;;0.10;0.10;;;;;;;11.92;100.00;100790.13;10518343;28;20480;-90
2022/10/24 21:23:00;;;;;;;0.10;0.10;;;;;;;11.82;100.00;100796.66;10539028;28;20078;-92
2022/10/24 21:28:01;;;;;;;0.10;0.10;;;;;;;11.64;100.00;100792.31;10533123;28;20024;-92
2022/10/24 21:33:01;;;;;;;0.10;0.10;;;;;;;11.64;100.00;100804.81;10533096;28;20347;-92
2022/10/24 21:38:01;;;;;;;0.10;0.10;;;;;;;11.59;100.00;100804.47;10538217;28;20058;-92
2022/10/24 21:43:01;;;;;;;0.10;0.10;;;;;;;11.52;100.00;100812.31;10536117;28;20028;-92
2022/10/24 21:48:02;;;;;;;0.10;0.10;;;;;;;11.41;100.00;100797.47;10557198;28;20116;-92
2022/10/24 21:53:02;;;;;;;0.10;0.10;;;;;;;11.46;100.00;100812.97;10552809;28;20040;-93
2022/10/24 21:58:03;;;;;;;0.10;0.10;;;;;;;11.38;100.00;100815.63;10543709;28;20388;-92
2022/10/24 22:03:03;;;;;;;0.10;0.10;;;;;;;11.33;100.00;100814.28;10539276;28;20267;-93
2022/10/24 22:08:18;;;;;;;0.10;0.10;;;;;;;11.32;100.00;100828.63;10558146;28;20029;-94
2022/10/24 22:13:19;;;;;;;0.10;0.10;;;;;;;11.29;100.00;100834.28;10546139;28;20317;-93
2022/10/24 22:18:20;;;;;;;0.10;0.10;;;;;;;11.40;100.00;100864.28;10585256;22;20016;-75
2022/10/24 22:23:21;;;;;;;0.10;0.10;;;;;;;11.40;100.00;100861.63;10453635;28;20071;-77
2022/10/24 22:28:21;;;;;;;0.00;0.00;;;;;;;11.41;100.00;100863.31;10455909;28;20021;-77
2022/10/24 22:33:32;;;;;;;0.00;0.00;;;;;;;11.44;100.00;100865.66;10489507;28;20023;-77
2022/10/24 22:38:32;;;;;;;0.10;0.10;;;;;;;11.48;100.00;100867.81;10495285;28;20085;-78
2022/10/24 22:43:33;;;;;;;0.10;0.10;;;;;;;11.52;100.00;100873.69;10496217;28;20155;-77
2022/10/24 22:48:39;;;;;;;0.10;0.10;;;;;;;11.52;100.00;100871.84;10455373;28;20029;-76
2022/10/24 22:53:39;;;;;;;0.00;0.00;;;;;;;11.48;100.00;100869.66;10454682;28;20496;-78
2022/10/24 22:58:42;;;;;;;0.10;0.10;;;;;;;11.42;100.00;100865.81;10455058;28;20029;-75
2022/10/24 23:04:11;;;;;;;0.10;0.10;;;;;;;11.33;100.00;100878.28;10454088;28;20032;-77
2022/10/24 23:09:11;;;;;;;0.10;0.10;;;;;;;11.25;100.00;100880.91;10454577;28;20485;-78
2022/10/24 23:14:12;;;;;;;0.10;0.10;;;;;;;11.16;100.00;100887.22;10454186;28;20056;-77